createdAt,value
2022-08-22T00:00:37.351Z,100.00
2022-08-22T00:03:28.391Z,100.00
2022-08-22T00:06:09.513Z,100.00
2022-08-22T00:08:46.625Z,100.00
2022-08-22T00:11:25.851Z,100.00
2022-08-22T00:14:01.753Z,100.00
2022-08-22T00:16:39.055Z,100.00
2022-08-22T00:19:23.728Z,100.00
2022-08-22T00:22:01.202Z,100.00
2022-08-22T00:24:36.951Z,100.00
2022-08-22T00:27:12.887Z,100.00
2022-08-22T00:29:45.990Z,100.00
2022-08-22T00:32:21.345Z,100.00
2022-08-22T00:34:59.767Z,100.00
2022-08-22T00:37:34.873Z,100.00
2022-08-22T00:40:21.118Z,100.00
2022-08-22T00:43:15.819Z,100.00
2022-08-22T00:46:05.021Z,100.00
2022-08-22T00:48:54.789Z,100.00
2022-08-22T00:51:52.079Z,100.00
2022-08-22T00:54:35.285Z,100.00
2022-08-22T00:57:38.060Z,100.00
2022-08-22T01:00:19.961Z,100.00
2022-08-22T01:03:15.240Z,100.00
2022-08-22T01:05:57.809Z,100.00
2022-08-22T01:08:42.829Z,100.00
2022-08-22T01:11:30.207Z,100.00
2022-08-22T01:14:34.335Z,100.00
2022-08-22T01:17:32.133Z,100.00
2022-08-22T01:20:28.203Z,100.00
2022-08-22T01:23:40.462Z,100.00
2022-08-22T01:30:04.901Z,100.00
2022-08-22T01:33:12.880Z,100.00
2022-08-22T01:36:07.557Z,100.00
2022-08-22T01:39:04.111Z,100.00
2022-08-22T01:41:52.976Z,100.00
2022-08-22T01:44:44.277Z,100.00
2022-08-22T01:47:17.740Z,100.00
2022-08-22T01:49:51.623Z,100.00
2022-08-22T01:52:39.859Z,100.00
2022-08-22T01:55:14.361Z,100.00
2022-08-22T01:57:56.228Z,100.00
2022-08-22T02:00:35.360Z,100.00
2022-08-22T02:03:23.031Z,100.00
2022-08-22T02:06:01.551Z,100.00
2022-08-22T02:08:45.298Z,100.00
2022-08-22T02:11:37.580Z,100.00
2022-08-22T02:14:17.600Z,100.00
2022-08-22T02:16:51.531Z,100.00
2022-08-22T02:19:32.230Z,100.00
2022-08-22T02:22:07.808Z,100.00
2022-08-22T02:24:52.304Z,100.00
2022-08-22T02:27:31.433Z,100.00
2022-08-22T02:30:05.913Z,100.00
2022-08-22T02:32:46.002Z,100.00
2022-08-22T02:35:25.780Z,100.00
2022-08-22T02:38:06.889Z,100.00
2022-08-22T02:40:43.628Z,100.00
2022-08-22T02:43:21.835Z,100.00
2022-08-22T02:45:57.020Z,100.00
2022-08-22T02:48:36.888Z,100.00
2022-08-22T02:51:15.278Z,100.00
2022-08-22T02:53:52.709Z,100.00
2022-08-22T02:56:31.642Z,100.00
2022-08-22T02:59:15.662Z,100.00
2022-08-22T03:01:47.627Z,100.00
2022-08-22T03:04:28.414Z,100.00
2022-08-22T03:07:25.893Z,100.00
2022-08-22T03:10:04.320Z,100.00
2022-08-22T03:12:44.864Z,100.00
2022-08-22T03:15:24.365Z,100.00
2022-08-22T03:17:58.439Z,100.00
2022-08-22T03:20:45.553Z,100.00
2022-08-22T03:23:26.664Z,100.00
2022-08-22T03:26:04.142Z,100.00
2022-08-22T03:28:52.624Z,100.00
2022-08-22T03:31:29.996Z,100.00
2022-08-22T03:34:22.360Z,100.00
2022-08-22T03:37:05.475Z,100.00
2022-08-22T03:39:57.645Z,100.00
2022-08-22T03:42:52.839Z,100.00
2022-08-22T03:45:48.697Z,100.00
2022-08-22T03:48:55.122Z,100.00
2022-08-22T03:51:43.767Z,100.00
2022-08-22T03:54:45.733Z,100.00
2022-08-22T03:57:44.384Z,100.00
2022-08-22T04:00:56.724Z,100.00
2022-08-22T04:03:59.267Z,100.00
2022-08-22T04:06:50.596Z,100.00
2022-08-22T04:09:59.481Z,100.00
2022-08-22T04:12:51.839Z,100.00
2022-08-22T04:15:49.634Z,100.00
2022-08-22T04:18:38.161Z,100.00
2022-08-22T04:21:30.789Z,100.00
2022-08-22T04:24:34.887Z,100.00
2022-08-22T04:27:13.368Z,100.00
2022-08-22T04:29:48.450Z,100.00
2022-08-22T04:32:25.341Z,100.00
2022-08-22T04:35:00.992Z,100.00
2022-08-22T04:37:39.120Z,100.00
2022-08-22T04:40:17.969Z,100.00
2022-08-22T04:42:54.309Z,100.00
2022-08-22T04:45:29.948Z,100.00
2022-08-22T04:48:09.228Z,100.00
2022-08-22T04:50:44.164Z,100.00
2022-08-22T04:53:36.429Z,100.00
2022-08-22T04:56:12.483Z,100.00
2022-08-22T04:58:58.207Z,100.00
2022-08-22T05:01:40.630Z,100.00
2022-08-22T05:04:17.186Z,100.00
2022-08-22T05:06:50.846Z,100.00
2022-08-22T05:09:23.586Z,100.00
2022-08-22T05:11:57.655Z,100.00
2022-08-22T05:14:32.202Z,100.00
2022-08-22T05:17:03.422Z,100.00
2022-08-22T05:19:40.030Z,100.00
2022-08-22T05:22:15.390Z,100.00
2022-08-22T05:24:49.853Z,100.00
2022-08-22T05:27:26.514Z,100.00
2022-08-22T05:30:03.427Z,100.00
2022-08-22T05:32:39.489Z,100.00
2022-08-22T05:35:12.730Z,100.00
2022-08-22T05:37:47.509Z,100.00
2022-08-22T05:40:24.870Z,100.00
2022-08-22T05:42:55.384Z,100.00
2022-08-22T05:45:27.202Z,100.00
2022-08-22T05:48:03.260Z,100.00
2022-08-22T05:50:41.153Z,100.00
2022-08-22T05:53:15.010Z,100.00
2022-08-22T05:56:02.075Z,100.00
2022-08-22T05:58:49.519Z,100.00
2022-08-22T06:01:27.704Z,100.00
2022-08-22T06:04:06.844Z,100.00
2022-08-22T06:06:45.409Z,100.00
2022-08-22T06:09:22.501Z,100.00
2022-08-22T06:12:00.559Z,100.00
2022-08-22T06:14:39.391Z,100.00
2022-08-22T06:17:14.885Z,100.00
2022-08-22T06:19:48.717Z,100.00
2022-08-22T06:22:26.748Z,100.00
2022-08-22T06:24:59.247Z,100.00
2022-08-22T06:27:31.259Z,100.00
2022-08-22T06:30:04.255Z,100.00
2022-08-22T06:32:58.587Z,100.00
2022-08-22T06:35:52.805Z,100.00
2022-08-22T06:38:31.260Z,100.00
2022-08-22T06:41:04.446Z,100.00
2022-08-22T06:43:41.728Z,100.00
2022-08-22T06:46:12.859Z,100.00
2022-08-22T06:48:43.001Z,100.00
2022-08-22T06:51:16.554Z,100.00
2022-08-22T06:53:51.596Z,100.00
2022-08-22T06:56:24.227Z,100.00
2022-08-22T06:58:59.268Z,100.00
2022-08-22T07:01:33.226Z,100.00
2022-08-22T07:04:07.628Z,100.00
2022-08-22T07:06:39.263Z,100.00
2022-08-22T07:09:22.237Z,98.96
2022-08-22T07:11:52.407Z,99.81
2022-08-22T07:14:29.777Z,94.23
2022-08-22T07:17:04.416Z,95.71
2022-08-22T07:19:37.586Z,95.69
2022-08-22T07:22:14.932Z,97.17
2022-08-22T07:24:53.645Z,92.82
2022-08-22T07:27:40.081Z,91.20
2022-08-22T07:30:14.778Z,86.38
2022-08-22T07:32:53.795Z,86.15
2022-08-22T07:35:27.817Z,81.74
2022-08-22T07:38:11.161Z,77.38
2022-08-22T07:40:55.129Z,80.02
2022-08-22T07:43:31.760Z,77.97
2022-08-22T07:46:10.969Z,79.65
2022-08-22T07:49:08.023Z,77.50
2022-08-22T07:51:47.358Z,79.04
2022-08-22T07:54:18.378Z,79.19
2022-08-22T07:56:59.680Z,77.06
2022-08-22T07:59:31.440Z,80.65
2022-08-22T08:02:05.888Z,76.58
2022-08-22T08:04:40.573Z,73.85
2022-08-22T08:07:12.780Z,73.41
2022-08-22T08:09:45.410Z,69.40
2022-08-22T08:12:18.460Z,65.23
2022-08-22T08:14:53.340Z,60.84
2022-08-22T08:17:31.388Z,60.41
2022-08-22T08:20:09.404Z,56.51
2022-08-22T08:22:40.817Z,55.51
2022-08-22T08:25:11.921Z,54.63
2022-08-22T08:27:57.034Z,54.37
2022-08-22T08:30:37.148Z,53.89
2022-08-22T08:33:24.345Z,54.02
2022-08-22T08:36:02.373Z,51.30
2022-08-22T08:38:38.356Z,50.88
2022-08-22T08:41:30.657Z,50.56
2022-08-22T08:44:10.128Z,50.01
2022-08-22T08:47:12.723Z,48.82
2022-08-22T08:50:22.762Z,49.27
2022-08-22T08:53:31.761Z,45.67
2022-08-22T08:56:10.812Z,45.49
2022-08-22T08:58:48.825Z,43.29
2022-08-22T09:01:48.442Z,43.67
2022-08-22T09:04:43.451Z,42.98
2022-08-22T09:07:45.312Z,42.33
2022-08-22T09:10:31.415Z,40.27
2022-08-22T09:13:19.357Z,39.24
2022-08-22T09:16:14.904Z,40.02
2022-08-22T09:19:25.798Z,39.12
2022-08-22T09:22:24.186Z,39.37
2022-08-22T09:25:13.980Z,35.84
2022-08-22T09:27:52.355Z,35.03
2022-08-22T09:30:28.734Z,35.38
2022-08-22T09:33:04.530Z,33.93
2022-08-22T09:35:49.059Z,32.94
2022-08-22T09:38:37.167Z,31.72
2022-08-22T09:41:19.098Z,33.07
2022-08-22T09:43:58.872Z,33.40
2022-08-22T09:46:36.683Z,33.64
2022-08-22T09:49:12.084Z,34.36
2022-08-22T09:51:58.602Z,34.86
2022-08-22T09:54:36.116Z,33.74
2022-08-22T09:57:23.058Z,33.97
2022-08-22T10:00:17.866Z,35.45
2022-08-22T10:03:06.015Z,33.52
2022-08-22T10:05:46.581Z,33.49
2022-08-22T10:08:47.695Z,33.13
2022-08-22T10:11:25.883Z,32.90
2022-08-22T10:14:02.427Z,33.53
2022-08-22T10:16:52.203Z,34.80
2022-08-22T10:19:29.074Z,35.63
2022-08-22T10:22:29.792Z,34.94
2022-08-22T10:25:15.157Z,34.22
2022-08-22T10:27:59.738Z,34.56
2022-08-22T10:30:35.952Z,34.57
2022-08-22T10:33:13.529Z,32.44
2022-08-22T10:35:57.517Z,32.09
2022-08-22T10:38:31.856Z,32.31
2022-08-22T10:41:11.331Z,32.73
2022-08-22T10:43:47.765Z,34.42
2022-08-22T10:46:31.188Z,34.08
2022-08-22T10:49:08.087Z,33.91
2022-08-22T10:51:49.896Z,34.10
2022-08-22T10:54:43.247Z,34.76
2022-08-22T10:57:34.020Z,34.63
2022-08-22T11:00:12.351Z,33.46
2022-08-22T11:02:53.727Z,32.95
2022-08-22T11:05:30.135Z,33.67
2022-08-22T11:08:15.833Z,31.92
2022-08-22T11:11:08.647Z,30.47
2022-08-22T11:13:47.544Z,31.16
2022-08-22T11:16:41.529Z,32.14
2022-08-22T11:19:35.991Z,31.51
2022-08-22T11:22:15.900Z,30.45
2022-08-22T11:25:11.344Z,31.57
2022-08-22T11:27:52.281Z,30.52
2022-08-22T11:30:36.485Z,30.24
2022-08-22T11:33:32.509Z,31.17
2022-08-22T11:36:27.441Z,30.48
2022-08-22T11:39:13.819Z,31.79
2022-08-22T11:41:54.528Z,31.82
2022-08-22T11:44:32.174Z,30.89
2022-08-22T11:47:13.714Z,30.35
2022-08-22T11:49:54.277Z,30.24
2022-08-22T11:52:30.894Z,31.03
2022-08-22T11:55:18.199Z,29.36
2022-08-22T11:57:50.852Z,31.09
2022-08-22T12:00:28.003Z,30.74
2022-08-22T12:03:28.639Z,31.12
2022-08-22T12:06:06.240Z,30.24
2022-08-22T12:09:07.367Z,30.54
2022-08-22T12:11:43.662Z,30.19
2022-08-22T12:14:27.917Z,30.94
2022-08-22T12:17:26.303Z,31.57
2022-08-22T12:20:19.379Z,29.79
2022-08-22T12:23:09.182Z,30.86
2022-08-22T12:25:54.042Z,30.27
2022-08-22T12:28:33.857Z,29.97
2022-08-22T12:31:17.379Z,29.27
2022-08-22T12:34:07.424Z,29.98
2022-08-22T12:36:57.703Z,29.98
2022-08-22T12:39:56.716Z,29.98
2022-08-22T12:42:46.663Z,31.16
2022-08-22T12:45:43.647Z,30.31
2022-08-22T12:48:28.449Z,30.94
2022-08-22T12:51:17.432Z,30.39
2022-08-22T12:54:14.581Z,30.44
2022-08-22T12:56:51.711Z,30.37
2022-08-22T12:59:28.787Z,30.45
2022-08-22T13:02:01.770Z,29.85
2022-08-22T13:04:36.891Z,30.24
2022-08-22T13:07:19.397Z,29.95
2022-08-22T13:09:57.821Z,30.20
2022-08-22T13:12:34.297Z,29.30
2022-08-22T13:15:13.518Z,30.54
2022-08-22T13:17:46.699Z,29.62
2022-08-22T13:20:26.632Z,29.58
2022-08-22T13:22:57.264Z,29.95
2022-08-22T13:25:32.157Z,31.03
2022-08-22T13:28:05.274Z,31.24
2022-08-22T13:30:37.933Z,30.96
2022-08-22T13:33:11.271Z,30.69
2022-08-22T13:35:51.658Z,30.88
2022-08-22T13:38:26.615Z,31.63
2022-08-22T13:41:00.784Z,32.21
2022-08-22T13:43:33.884Z,32.43
2022-08-22T13:46:06.367Z,33.00
2022-08-22T13:48:52.433Z,33.05
2022-08-22T13:51:29.002Z,32.10
2022-08-22T13:54:10.921Z,31.73
2022-08-22T13:56:58.472Z,32.42
2022-08-22T13:59:51.000Z,31.31
2022-08-22T14:02:43.473Z,31.64
2022-08-22T14:05:19.718Z,31.77
2022-08-22T14:07:57.492Z,32.22
2022-08-22T14:10:32.357Z,31.55
2022-08-22T14:13:37.761Z,31.44
2022-08-22T14:16:12.190Z,32.19
2022-08-22T14:18:51.429Z,31.42
2022-08-22T14:21:41.973Z,31.19
2022-08-22T14:24:25.706Z,30.51
2022-08-22T14:27:05.707Z,30.93
2022-08-22T14:29:56.433Z,30.49
2022-08-22T14:32:50.195Z,30.98
2022-08-22T14:35:34.661Z,31.65
2022-08-22T14:38:30.018Z,30.95
2022-08-22T14:41:04.084Z,31.17
2022-08-22T14:43:52.574Z,31.38
2022-08-22T14:46:29.687Z,31.19
2022-08-22T14:49:16.457Z,31.83
2022-08-22T14:51:52.299Z,31.84
2022-08-22T14:54:29.149Z,31.53
2022-08-22T14:56:59.836Z,31.97
2022-08-22T14:59:42.744Z,31.12
2022-08-22T15:02:19.519Z,31.77
2022-08-22T15:04:53.025Z,32.30
2022-08-22T15:07:26.908Z,31.51
2022-08-22T15:10:03.401Z,31.44
2022-08-22T15:12:36.485Z,31.43
2022-08-22T15:15:18.502Z,32.03
2022-08-22T15:17:51.238Z,31.27
2022-08-22T15:20:28.476Z,32.07
2022-08-22T15:23:01.421Z,31.83
2022-08-22T15:25:36.238Z,31.99
2022-08-22T15:28:14.491Z,30.92
2022-08-22T15:30:54.051Z,30.66
2022-08-22T15:33:32.232Z,31.13
2022-08-22T15:36:15.813Z,32.76
2022-08-22T15:38:48.459Z,32.05
2022-08-22T15:41:39.934Z,32.17
2022-08-22T15:44:15.032Z,31.91
2022-08-22T15:47:24.264Z,32.54
2022-08-22T15:50:05.450Z,32.57
2022-08-22T15:52:59.823Z,33.03
2022-08-22T15:55:35.545Z,33.81
2022-08-22T15:58:13.118Z,34.52
2022-08-22T16:00:46.645Z,34.04
2022-08-22T16:03:32.068Z,34.92
2022-08-22T16:06:07.974Z,34.97
2022-08-22T16:08:49.711Z,35.15
2022-08-22T16:11:32.940Z,35.59
2022-08-22T16:14:26.831Z,36.10
2022-08-22T16:17:04.095Z,36.74
2022-08-22T16:19:34.839Z,36.42
2022-08-22T16:22:12.235Z,36.98
2022-08-22T16:25:05.237Z,37.07
2022-08-22T16:27:35.266Z,36.95
2022-08-22T16:30:18.050Z,37.12
2022-08-22T16:32:56.692Z,37.49
2022-08-22T16:35:56.280Z,37.09
2022-08-22T16:38:38.300Z,37.61
2022-08-22T16:41:10.203Z,37.82
2022-08-22T16:43:40.113Z,38.02
2022-08-22T16:46:33.155Z,38.83
2022-08-22T16:49:07.847Z,39.06
2022-08-22T16:51:37.423Z,39.48
2022-08-22T16:54:15.124Z,39.73
2022-08-22T16:57:02.420Z,39.95
2022-08-22T16:59:53.440Z,40.32
2022-08-22T17:02:37.433Z,40.27
2022-08-22T17:05:21.495Z,40.69
2022-08-22T17:08:06.097Z,40.69
2022-08-22T17:11:03.161Z,40.52
2022-08-22T17:13:53.121Z,40.88
2022-08-22T17:16:42.241Z,40.72
2022-08-22T17:19:24.634Z,41.49
2022-08-22T17:22:00.949Z,41.25
2022-08-22T17:24:39.272Z,41.15
2022-08-22T17:27:35.132Z,41.14
2022-08-22T17:30:09.609Z,41.43
2022-08-22T17:32:51.453Z,41.62
2022-08-22T17:35:43.516Z,42.04
2022-08-22T17:38:21.813Z,41.26
2022-08-22T17:41:04.346Z,41.98
2022-08-22T17:43:54.508Z,42.46
2022-08-22T17:46:50.847Z,43.38
2022-08-22T17:49:32.058Z,44.47
2022-08-22T17:52:11.955Z,45.09
2022-08-22T17:54:46.060Z,45.58
2022-08-22T17:57:26.324Z,46.30
2022-08-22T18:00:04.150Z,47.27
2022-08-22T18:02:42.612Z,48.32
2022-08-22T18:05:19.407Z,48.97
2022-08-22T18:07:57.982Z,49.21
2022-08-22T18:10:40.653Z,49.94
2022-08-22T18:13:15.162Z,50.69
2022-08-22T18:15:57.627Z,50.92
2022-08-22T18:18:32.089Z,51.11
2022-08-22T18:21:07.401Z,51.71
2022-08-22T18:23:42.087Z,52.10
2022-08-22T18:26:31.398Z,52.59
2022-08-22T18:29:08.513Z,53.22
2022-08-22T18:31:49.726Z,53.52
2022-08-22T18:34:29.832Z,53.75
2022-08-22T18:37:05.937Z,54.33
2022-08-22T18:39:44.810Z,54.96
2022-08-22T18:42:25.937Z,55.31
2022-08-22T18:44:55.651Z,55.74
2022-08-22T18:47:32.793Z,55.71
2022-08-22T18:50:05.491Z,56.43
2022-08-22T18:52:38.598Z,56.84
2022-08-22T18:55:40.413Z,57.31
2022-08-22T18:58:40.813Z,58.13
2022-08-22T19:01:32.387Z,59.02
2022-08-22T19:04:33.025Z,59.23
2022-08-22T19:07:30.223Z,59.54
2022-08-22T19:10:25.367Z,59.83
2022-08-22T19:13:21.574Z,60.35
2022-08-22T19:16:03.729Z,60.89
2022-08-22T19:18:44.884Z,61.60
2022-08-22T19:21:42.462Z,61.94
2022-08-22T19:24:34.688Z,62.68
2022-08-22T19:27:31.342Z,63.20
2022-08-22T19:30:04.759Z,63.30
2022-08-22T19:33:02.989Z,63.81
2022-08-22T19:35:44.817Z,64.68
2022-08-22T19:38:51.942Z,65.35
2022-08-22T19:41:52.634Z,65.64
2022-08-22T19:44:42.274Z,66.06
2022-08-22T19:47:34.913Z,66.63
2022-08-22T19:50:09.215Z,67.46
2022-08-22T19:53:00.720Z,66.84
2022-08-22T19:55:53.273Z,67.80
2022-08-22T19:58:32.648Z,68.55
2022-08-22T20:01:09.062Z,68.90
2022-08-22T20:03:49.674Z,69.96
2022-08-22T20:06:47.787Z,70.22
2022-08-22T20:09:43.060Z,71.35
2022-08-22T20:12:22.149Z,72.38
2022-08-22T20:14:52.695Z,73.42
2022-08-22T20:17:42.642Z,75.05
2022-08-22T20:20:18.239Z,75.47
2022-08-22T20:22:52.693Z,76.51
2022-08-22T20:25:41.604Z,77.19
2022-08-22T20:28:34.128Z,78.40
2022-08-22T20:31:08.577Z,79.39
2022-08-22T20:33:41.201Z,80.33
2022-08-22T20:36:27.420Z,81.63
2022-08-22T20:39:01.591Z,81.98
2022-08-22T20:41:36.787Z,82.22
2022-08-22T20:44:15.993Z,82.40
2022-08-22T20:46:55.889Z,83.75
2022-08-22T20:49:28.934Z,84.08
2022-08-22T20:52:00.436Z,85.36
2022-08-22T20:54:32.122Z,86.01
2022-08-22T20:57:04.722Z,86.09
2022-08-22T20:59:41.902Z,86.46
2022-08-22T21:02:16.723Z,87.41
2022-08-22T21:04:53.315Z,87.68
2022-08-22T21:07:25.867Z,88.71
2022-08-22T21:10:43.861Z,89.11
2022-08-22T21:13:19.736Z,90.29
2022-08-22T21:15:55.641Z,90.86
2022-08-22T21:18:32.283Z,91.17
2022-08-22T21:21:17.042Z,91.68
2022-08-22T21:23:51.363Z,91.90
2022-08-22T21:26:27.567Z,92.14
2022-08-22T21:29:03.830Z,92.54
2022-08-22T21:31:39.877Z,93.48
2022-08-22T21:34:15.846Z,93.84
2022-08-22T21:36:46.269Z,94.18
2022-08-22T21:39:20.574Z,94.67
2022-08-22T21:41:53.535Z,94.43
2022-08-22T21:44:31.227Z,94.78
2022-08-22T21:47:19.143Z,95.24
2022-08-22T21:50:10.964Z,95.46
2022-08-22T21:52:44.234Z,96.17
2022-08-22T21:55:29.807Z,96.72
2022-08-22T21:58:12.000Z,96.23
2022-08-22T22:00:48.970Z,96.65
2022-08-22T22:03:23.992Z,97.31
2022-08-22T22:05:56.438Z,98.27
2022-08-22T22:08:29.244Z,98.25
2022-08-22T22:11:04.711Z,98.52
2022-08-22T22:13:38.180Z,98.69
2022-08-22T22:16:09.423Z,98.85
2022-08-22T22:18:42.518Z,99.42
2022-08-22T22:21:12.603Z,99.62
2022-08-22T22:23:42.456Z,99.25
2022-08-22T22:26:12.302Z,99.42
2022-08-22T22:28:44.122Z,98.73
2022-08-22T22:31:13.868Z,99.02
2022-08-22T22:33:46.163Z,98.12
2022-08-22T22:36:18.944Z,98.60
2022-08-22T22:38:49.360Z,98.38
2022-08-22T22:41:25.457Z,98.32
2022-08-22T22:43:55.898Z,98.31
2022-08-22T22:46:26.996Z,98.39
2022-08-22T22:49:00.273Z,98.79
2022-08-22T22:51:29.891Z,99.07
2022-08-22T22:54:00.413Z,99.09
2022-08-22T22:56:30.758Z,99.60
2022-08-22T22:59:14.600Z,99.68
2022-08-22T23:02:02.630Z,100.00
2022-08-22T23:04:36.666Z,100.00
2022-08-22T23:07:07.275Z,100.00
2022-08-22T23:09:44.873Z,100.00
2022-08-22T23:12:15.730Z,100.00
2022-08-22T23:14:45.559Z,100.00
2022-08-22T23:17:15.750Z,100.00
2022-08-22T23:19:48.106Z,100.00
2022-08-22T23:22:17.749Z,100.00
2022-08-22T23:24:47.899Z,100.00
2022-08-22T23:27:17.853Z,100.00
2022-08-22T23:29:47.692Z,100.00
2022-08-22T23:32:18.052Z,100.00
2022-08-22T23:34:50.904Z,100.00
2022-08-22T23:37:22.961Z,100.00
2022-08-22T23:39:52.960Z,100.00
2022-08-22T23:42:22.865Z,100.00
2022-08-22T23:44:52.458Z,100.00
2022-08-22T23:47:22.177Z,100.00
2022-08-22T23:49:55.898Z,100.00
2022-08-22T23:52:25.809Z,100.00
2022-08-22T23:54:55.923Z,100.00
2022-08-22T23:57:27.618Z,100.00
2022-08-22T23:59:59.801Z,100.00
